sensor_id;sensor_type;location;lat;lon;timestamp;pressure;altitude;pressure_sealevel;temperature;humidity
12785;BME280;6456;42.680;23.260;2023-03-24T00:00:04;94759.34;;;8.50;100.00
12785;BME280;6456;42.680;23.260;2023-03-24T00:02:36;94746.00;;;8.38;100.00
12785;BME280;6456;42.680;23.260;2023-03-24T00:05:06;94745.56;;;8.35;100.00
12785;BME280;6456;42.680;23.260;2023-03-24T00:07:33;94756.50;;;8.45;100.00
12785;BME280;6456;42.680;23.260;2023-03-24T00:10:03;94689.72;;;7.94;100.00
12785;BME280;6456;42.680;23.260;2023-03-24T00:12:32;94759.31;;;8.44;100.00
12785;BME280;6456;42.680;23.260;2023-03-24T00:15:03;94764.75;;;8.42;100.00
12785;BME280;6456;42.680;23.260;2023-03-24T00:17:31;94720.81;;;8.10;100.00
12785;BME280;6456;42.680;23.260;2023-03-24T00:20:00;94763.44;;;8.25;100.00
12785;BME280;6456;42.680;23.260;2023-03-24T00:22:35;94764.63;;;8.22;100.00
12785;BME280;6456;42.680;23.260;2023-03-24T00:25:02;94737.13;;;8.05;100.00
12785;BME280;6456;42.680;23.260;2023-03-24T00:27:30;94761.19;;;8.22;100.00
12785;BME280;6456;42.680;23.260;2023-03-24T00:30:04;94754.75;;;8.18;100.00
12785;BME280;6456;42.680;23.260;2023-03-24T00:32:31;94753.09;;;8.17;100.00
12785;BME280;6456;42.680;23.260;2023-03-24T00:34:59;94761.19;;;8.22;100.00
12785;BME280;6456;42.680;23.260;2023-03-24T00:37:26;94602.13;;;7.21;100.00
12785;BME280;6456;42.680;23.260;2023-03-24T00:39:53;94764.84;;;8.21;100.00
12785;BME280;6456;42.680;23.260;2023-03-24T00:42:21;94743.44;;;8.17;100.00
12785;BME280;6456;42.680;23.260;2023-03-24T00:44:49;94753.53;;;8.14;100.00
12785;BME280;6456;42.680;23.260;2023-03-24T00:47:19;94755.50;;;8.12;100.00
12785;BME280;6456;42.680;23.260;2023-03-24T00:49:51;94748.06;;;8.09;100.00
12785;BME280;6456;42.680;23.260;2023-03-24T00:52:20;94710.16;;;7.77;100.00
12785;BME280;6456;42.680;23.260;2023-03-24T00:54:49;94743.09;;;7.86;100.00
12785;BME280;6456;42.680;23.260;2023-03-24T00:57:21;94750.53;;;7.89;100.00
12785;BME280;6456;42.680;23.260;2023-03-24T00:59:48;94744.22;;;7.77;100.00
12785;BME280;6456;42.680;23.260;2023-03-24T01:02:17;94700.31;;;7.45;100.00
12785;BME280;6456;42.680;23.260;2023-03-24T01:04:51;94693.84;;;7.41;100.00
12785;BME280;6456;42.680;23.260;2023-03-24T01:07:18;94714.69;;;7.55;100.00
12785;BME280;6456;42.680;23.260;2023-03-24T01:09:46;94690.69;;;7.24;100.00
12785;BME280;6456;42.680;23.260;2023-03-24T01:12:17;94716.22;;;7.43;100.00
12785;BME280;6456;42.680;23.260;2023-03-24T01:14:44;94731.78;;;7.51;100.00
12785;BME280;6456;42.680;23.260;2023-03-24T01:17:11;94749.19;;;7.65;100.00
12785;BME280;6456;42.680;23.260;2023-03-24T01:19:38;94749.56;;;7.62;100.00
12785;BME280;6456;42.680;23.260;2023-03-24T01:22:08;94647.13;;;6.89;100.00
12785;BME280;6456;42.680;23.260;2023-03-24T01:24:37;94738.81;;;7.51;100.00
12785;BME280;6456;42.680;23.260;2023-03-24T01:27:04;94717.53;;;7.33;100.00
12785;BME280;6456;42.680;23.260;2023-03-24T01:29:32;94680.75;;;7.13;100.00
12785;BME280;6456;42.680;23.260;2023-03-24T01:31:59;94723.63;;;7.40;100.00
12785;BME280;6456;42.680;23.260;2023-03-24T01:34:26;94735.16;;;7.45;100.00
12785;BME280;6456;42.680;23.260;2023-03-24T01:36:52;94696.56;;;7.26;100.00
12785;BME280;6456;42.680;23.260;2023-03-24T01:39:21;94710.97;;;7.43;100.00
12785;BME280;6456;42.680;23.260;2023-03-24T01:41:48;94704.25;;;7.34;100.00
12785;BME280;6456;42.680;23.260;2023-03-24T01:44:28;94708.78;;;7.47;100.00
12785;BME280;6456;42.680;23.260;2023-03-24T01:46:56;94736.00;;;7.52;100.00
12785;BME280;6456;42.680;23.260;2023-03-24T01:49:25;94714.88;;;7.26;100.00
12785;BME280;6456;42.680;23.260;2023-03-24T01:51:55;94684.47;;;7.04;100.00
12785;BME280;6456;42.680;23.260;2023-03-24T01:54:28;94712.78;;;7.15;100.00
12785;BME280;6456;42.680;23.260;2023-03-24T01:56:59;94703.03;;;7.09;100.00
12785;BME280;6456;42.680;23.260;2023-03-24T01:59:29;94741.72;;;7.35;100.00
12785;BME280;6456;42.680;23.260;2023-03-24T02:01:57;94736.69;;;7.33;100.00
12785;BME280;6456;42.680;23.260;2023-03-24T02:04:29;94738.47;;;7.33;100.00
12785;BME280;6456;42.680;23.260;2023-03-24T02:07:02;94742.91;;;7.32;100.00
12785;BME280;6456;42.680;23.260;2023-03-24T02:09:32;94739.66;;;7.30;100.00
12785;BME280;6456;42.680;23.260;2023-03-24T02:11:59;94753.75;;;7.29;100.00
12785;BME280;6456;42.680;23.260;2023-03-24T02:14:27;94730.88;;;7.17;100.00
12785;BME280;6456;42.680;23.260;2023-03-24T02:17:07;94729.22;;;7.09;100.00
12785;BME280;6456;42.680;23.260;2023-03-24T02:20:22;94747.47;;;7.24;100.00
12785;BME280;6456;42.680;23.260;2023-03-24T02:23:19;94749.66;;;7.20;100.00
12785;BME280;6456;42.680;23.260;2023-03-24T02:26:29;94726.09;;;6.99;100.00
12785;BME280;6456;42.680;23.260;2023-03-24T02:29:15;94722.25;;;6.95;100.00
12785;BME280;6456;42.680;23.260;2023-03-24T02:32:08;94744.75;;;7.10;100.00
12785;BME280;6456;42.680;23.260;2023-03-24T02:35:05;94720.19;;;6.90;100.00
12785;BME280;6456;42.680;23.260;2023-03-24T02:38:10;94750.53;;;7.06;100.00
12785;BME280;6456;42.680;23.260;2023-03-24T02:40:45;94742.69;;;7.06;100.00
12785;BME280;6456;42.680;23.260;2023-03-24T02:43:23;94729.41;;;7.07;100.00
12785;BME280;6456;42.680;23.260;2023-03-24T02:46:06;94728.22;;;7.10;100.00
12785;BME280;6456;42.680;23.260;2023-03-24T02:48:45;94708.00;;;6.97;100.00
12785;BME280;6456;42.680;23.260;2023-03-24T02:51:18;94713.50;;;7.09;100.00
12785;BME280;6456;42.680;23.260;2023-03-24T02:53:52;94657.06;;;6.72;100.00
12785;BME280;6456;42.680;23.260;2023-03-24T02:56:28;94706.44;;;7.03;100.00
12785;BME280;6456;42.680;23.260;2023-03-24T02:59:01;94698.25;;;6.91;100.00
12785;BME280;6456;42.680;23.260;2023-03-24T03:01:31;94717.31;;;7.06;100.00
12785;BME280;6456;42.680;23.260;2023-03-24T03:04:02;94633.47;;;6.44;100.00
12785;BME280;6456;42.680;23.260;2023-03-24T03:06:32;94707.78;;;6.99;100.00
12785;BME280;6456;42.680;23.260;2023-03-24T03:09:04;94654.31;;;6.59;100.00
12785;BME280;6456;42.680;23.260;2023-03-24T03:11:35;94611.22;;;6.27;100.00
12785;BME280;6456;42.680;23.260;2023-03-24T03:14:06;94625.63;;;6.44;100.00
12785;BME280;6456;42.680;23.260;2023-03-24T03:16:38;94626.25;;;6.46;100.00
12785;BME280;6456;42.680;23.260;2023-03-24T03:19:13;94708.00;;;6.97;100.00
12785;BME280;6456;42.680;23.260;2023-03-24T03:21:43;94710.81;;;6.96;100.00
12785;BME280;6456;42.680;23.260;2023-03-24T03:24:13;94709.16;;;6.95;100.00
12785;BME280;6456;42.680;23.260;2023-03-24T03:26:44;94682.81;;;6.54;100.00
12785;BME280;6456;42.680;23.260;2023-03-24T03:29:16;94713.97;;;6.70;100.00
12785;BME280;6456;42.680;23.260;2023-03-24T03:31:49;94700.44;;;6.67;100.00
12785;BME280;6456;42.680;23.260;2023-03-24T03:34:24;94720.53;;;6.81;100.00
12785;BME280;6456;42.680;23.260;2023-03-24T03:36:57;94689.47;;;6.71;100.00
12785;BME280;6456;42.680;23.260;2023-03-24T03:39:29;94692.13;;;6.78;100.00
12785;BME280;6456;42.680;23.260;2023-03-24T03:41:59;94663.78;;;6.60;100.00
12785;BME280;6456;42.680;23.260;2023-03-24T03:44:27;94707.13;;;6.90;100.00
12785;BME280;6456;42.680;23.260;2023-03-24T03:46:54;94703.06;;;6.88;100.00
12785;BME280;6456;42.680;23.260;2023-03-24T03:49:21;94673.56;;;6.73;100.00
12785;BME280;6456;42.680;23.260;2023-03-24T03:51:51;94708.34;;;6.94;100.00
12785;BME280;6456;42.680;23.260;2023-03-24T03:54:19;94714.78;;;6.92;100.00
12785;BME280;6456;42.680;23.260;2023-03-24T03:56:46;94657.13;;;6.36;100.00
12785;BME280;6456;42.680;23.260;2023-03-24T03:59:30;94722.53;;;6.79;100.00
12785;BME280;6456;42.680;23.260;2023-03-24T04:02:02;94705.69;;;6.67;100.00
12785;BME280;6456;42.680;23.260;2023-03-24T04:04:53;94686.88;;;6.57;100.00
12785;BME280;6456;42.680;23.260;2023-03-24T04:07:26;94711.34;;;6.70;100.00
12785;BME280;6456;42.680;23.260;2023-03-24T04:10:06;94732.84;;;6.87;100.00
12785;BME280;6456;42.680;23.260;2023-03-24T04:12:47;94721.81;;;6.91;100.00
12785;BME280;6456;42.680;23.260;2023-03-24T04:15:33;94726.50;;;6.96;100.00
12785;BME280;6456;42.680;23.260;2023-03-24T04:18:28;94726.50;;;6.96;100.00
12785;BME280;6456;42.680;23.260;2023-03-24T04:21:06;94724.88;;;6.95;100.00
12785;BME280;6456;42.680;23.260;2023-03-24T04:23:44;94722.81;;;6.90;100.00
12785;BME280;6456;42.680;23.260;2023-03-24T04:26:18;94685.16;;;6.64;100.00
12785;BME280;6456;42.680;23.260;2023-03-24T04:29:01;94726.69;;;6.73;100.00
12785;BME280;6456;42.680;23.260;2023-03-24T04:31:34;94715.47;;;6.58;100.00
12785;BME280;6456;42.680;23.260;2023-03-24T04:34:06;94725.56;;;6.61;100.00
12785;BME280;6456;42.680;23.260;2023-03-24T04:36:40;94727.97;;;6.63;100.00
12785;BME280;6456;42.680;23.260;2023-03-24T04:39:12;94730.59;;;6.63;100.00
12785;BME280;6456;42.680;23.260;2023-03-24T04:41:41;94731.03;;;6.66;100.00
12785;BME280;6456;42.680;23.260;2023-03-24T04:44:09;94743.91;;;6.68;100.00
12785;BME280;6456;42.680;23.260;2023-03-24T04:46:39;94747.91;;;6.64;100.00
12785;BME280;6456;42.680;23.260;2023-03-24T04:49:06;94632.63;;;6.02;100.00
12785;BME280;6456;42.680;23.260;2023-03-24T04:51:34;94657.66;;;6.11;100.00
12785;BME280;6456;42.680;23.260;2023-03-24T04:54:01;94760.13;;;6.78;100.00
12785;BME280;6456;42.680;23.260;2023-03-24T04:56:33;94714.03;;;6.56;100.00
12785;BME280;6456;42.680;23.260;2023-03-24T04:59:03;94748.41;;;6.74;100.00
12785;BME280;6456;42.680;23.260;2023-03-24T05:01:31;94771.50;;;6.91;100.00
12785;BME280;6456;42.680;23.260;2023-03-24T05:04:03;94768.72;;;6.93;100.00
12785;BME280;6456;42.680;23.260;2023-03-24T05:06:30;94764.72;;;6.97;100.00
12785;BME280;6456;42.680;23.260;2023-03-24T05:08:58;94761.44;;;6.88;100.00
12785;BME280;6456;42.680;23.260;2023-03-24T05:11:25;94761.03;;;6.91;100.00
12785;BME280;6456;42.680;23.260;2023-03-24T05:13:53;94774.44;;;7.03;100.00
12785;BME280;6456;42.680;23.260;2023-03-24T05:16:20;94747.34;;;6.89;100.00
12785;BME280;6456;42.680;23.260;2023-03-24T05:18:47;94769.59;;;7.00;100.00
12785;BME280;6456;42.680;23.260;2023-03-24T05:21:16;94770.22;;;7.02;100.00
12785;BME280;6456;42.680;23.260;2023-03-24T05:23:45;94774.25;;;7.04;100.00
12785;BME280;6456;42.680;23.260;2023-03-24T05:26:11;94773.28;;;7.05;100.00
12785;BME280;6456;42.680;23.260;2023-03-24T05:28:38;94778.22;;;7.22;100.00
12785;BME280;6456;42.680;23.260;2023-03-24T05:31:05;94749.72;;;7.05;100.00
12785;BME280;6456;42.680;23.260;2023-03-24T05:33:32;94775.50;;;7.30;100.00
12785;BME280;6456;42.680;23.260;2023-03-24T05:35:59;94764.59;;;7.26;100.00
12785;BME280;6456;42.680;23.260;2023-03-24T05:38:27;94772.94;;;7.36;100.00
12785;BME280;6456;42.680;23.260;2023-03-24T05:40:55;94782.41;;;7.37;100.00
12785;BME280;6456;42.680;23.260;2023-03-24T05:43:23;94712.16;;;6.92;100.00
12785;BME280;6456;42.680;23.260;2023-03-24T05:45:50;94783.66;;;7.41;100.00
12785;BME280;6456;42.680;23.260;2023-03-24T05:48:17;94753.50;;;7.24;100.00
12785;BME280;6456;42.680;23.260;2023-03-24T05:50:53;94775.41;;;7.44;100.00
12785;BME280;6456;42.680;23.260;2023-03-24T05:53:20;94748.94;;;7.33;100.00
12785;BME280;6456;42.680;23.260;2023-03-24T05:55:48;94778.91;;;7.51;100.00
12785;BME280;6456;42.680;23.260;2023-03-24T05:58:18;94776.91;;;7.53;100.00
12785;BME280;6456;42.680;23.260;2023-03-24T06:00:46;94759.47;;;7.39;100.00
12785;BME280;6456;42.680;23.260;2023-03-24T06:03:13;94779.53;;;7.53;100.00
12785;BME280;6456;42.680;23.260;2023-03-24T06:05:41;94773.47;;;7.53;100.00
12785;BME280;6456;42.680;23.260;2023-03-24T06:08:10;94777.91;;;7.52;100.00
12785;BME280;6456;42.680;23.260;2023-03-24T06:10:37;94756.72;;;7.47;100.00
12785;BME280;6456;42.680;23.260;2023-03-24T06:13:06;94756.13;;;7.52;100.00
12785;BME280;6456;42.680;23.260;2023-03-24T06:15:33;94758.03;;;7.64;100.00
12785;BME280;6456;42.680;23.260;2023-03-24T06:18:00;94697.03;;;7.36;100.00
12785;BME280;6456;42.680;23.260;2023-03-24T06:20:29;94792.53;;;7.96;100.00
12785;BME280;6456;42.680;23.260;2023-03-24T06:22:56;94745.03;;;7.78;100.00
12785;BME280;6456;42.680;23.260;2023-03-24T06:25:24;94791.13;;;8.00;100.00
12785;BME280;6456;42.680;23.260;2023-03-24T06:27:53;94767.31;;;7.95;100.00
12785;BME280;6456;42.680;23.260;2023-03-24T06:30:21;94768.16;;;8.02;100.00
12785;BME280;6456;42.680;23.260;2023-03-24T06:32:47;94761.69;;;7.98;100.00
12785;BME280;6456;42.680;23.260;2023-03-24T06:35:15;94793.34;;;8.30;100.00
12785;BME280;6456;42.680;23.260;2023-03-24T06:37:42;94783.53;;;8.39;100.00
12785;BME280;6456;42.680;23.260;2023-03-24T06:40:11;94759.22;;;8.24;100.00
12785;BME280;6456;42.680;23.260;2023-03-24T06:42:40;94787.16;;;8.45;100.00
12785;BME280;6456;42.680;23.260;2023-03-24T06:45:07;94790.22;;;8.55;100.00
12785;BME280;6456;42.680;23.260;2023-03-24T06:47:36;94770.66;;;8.51;100.00
12785;BME280;6456;42.680;23.260;2023-03-24T06:50:03;94793.34;;;8.71;100.00
12785;BME280;6456;42.680;23.260;2023-03-24T06:52:31;94755.94;;;8.56;100.00
12785;BME280;6456;42.680;23.260;2023-03-24T06:54:58;94783.28;;;8.81;100.00
12785;BME280;6456;42.680;23.260;2023-03-24T06:57:26;94793.78;;;8.88;100.00
12785;BME280;6456;42.680;23.260;2023-03-24T06:59:53;94765.91;;;8.80;100.00
12785;BME280;6456;42.680;23.260;2023-03-24T07:02:20;94777.44;;;8.92;100.00
12785;BME280;6456;42.680;23.260;2023-03-24T07:04:49;94802.31;;;9.10;100.00
12785;BME280;6456;42.680;23.260;2023-03-24T07:07:18;94794.44;;;9.10;100.00
12785;BME280;6456;42.680;23.260;2023-03-24T07:09:46;94805.56;;;9.12;100.00
12785;BME280;6456;42.680;23.260;2023-03-24T07:12:14;94790.97;;;9.02;100.00
12785;BME280;6456;42.680;23.260;2023-03-24T07:14:41;94724.91;;;8.66;100.00
12785;BME280;6456;42.680;23.260;2023-03-24T07:17:08;94728.75;;;8.77;100.00
12785;BME280;6456;42.680;23.260;2023-03-24T07:19:35;94816.06;;;9.25;100.00
12785;BME280;6456;42.680;23.260;2023-03-24T07:22:03;94818.91;;;9.30;100.00
12785;BME280;6456;42.680;23.260;2023-03-24T07:24:33;94814.50;;;9.43;100.00
12785;BME280;6456;42.680;23.260;2023-03-24T07:26:59;94795.91;;;9.32;100.00
12785;BME280;6456;42.680;23.260;2023-03-24T07:29:26;94795.09;;;9.51;100.00
12785;BME280;6456;42.680;23.260;2023-03-24T07:31:53;94747.00;;;9.24;100.00
12785;BME280;6456;42.680;23.260;2023-03-24T07:34:23;94798.13;;;9.61;100.00
12785;BME280;6456;42.680;23.260;2023-03-24T07:36:49;94818.34;;;9.80;100.00
12785;BME280;6456;42.680;23.260;2023-03-24T07:39:18;94734.28;;;9.41;100.00
12785;BME280;6456;42.680;23.260;2023-03-24T07:41:45;94813.28;;;9.98;100.00
12785;BME280;6456;42.680;23.260;2023-03-24T07:44:12;94811.63;;;10.10;100.00
12785;BME280;6456;42.680;23.260;2023-03-24T07:46:40;94812.06;;;10.20;100.00
12785;BME280;6456;42.680;23.260;2023-03-24T07:49:06;94820.34;;;10.30;100.00
12785;BME280;6456;42.680;23.260;2023-03-24T07:51:33;94806.38;;;10.37;100.00
12785;BME280;6456;42.680;23.260;2023-03-24T07:54:00;94800.50;;;10.41;100.00
12785;BME280;6456;42.680;23.260;2023-03-24T07:56:28;94804.31;;;10.52;100.00
12785;BME280;6456;42.680;23.260;2023-03-24T07:58:55;94755.06;;;10.14;100.00
12785;BME280;6456;42.680;23.260;2023-03-24T08:01:22;94794.34;;;10.60;100.00
12785;BME280;6456;42.680;23.260;2023-03-24T08:03:49;94778.78;;;10.59;100.00
12785;BME280;6456;42.680;23.260;2023-03-24T08:06:19;94677.59;;;9.97;100.00
12785;BME280;6456;42.680;23.260;2023-03-24T08:08:46;94790.03;;;10.79;100.00
12785;BME280;6456;42.680;23.260;2023-03-24T08:11:13;94770.97;;;10.83;100.00
12785;BME280;6456;42.680;23.260;2023-03-24T08:13:41;94793.56;;;11.04;100.00
12785;BME280;6456;42.680;23.260;2023-03-24T08:16:08;94759.22;;;10.86;100.00
12785;BME280;6456;42.680;23.260;2023-03-24T08:18:34;94787.88;;;11.07;100.00
12785;BME280;6456;42.680;23.260;2023-03-24T08:21:01;94791.63;;;11.18;100.00
12785;BME280;6456;42.680;23.260;2023-03-24T08:23:28;94756.44;;;11.12;100.00
12785;BME280;6456;42.680;23.260;2023-03-24T08:25:55;94783.25;;;11.27;100.00
12785;BME280;6456;42.680;23.260;2023-03-24T08:28:22;94782.38;;;11.40;99.42
12785;BME280;6456;42.680;23.260;2023-03-24T08:30:51;94782.34;;;11.46;97.03
12785;BME280;6456;42.680;23.260;2023-03-24T08:33:18;94772.38;;;11.48;97.24
12785;BME280;6456;42.680;23.260;2023-03-24T08:35:44;94778.16;;;11.64;96.86
12785;BME280;6456;42.680;23.260;2023-03-24T08:38:11;94776.69;;;11.74;95.68
12785;BME280;6456;42.680;23.260;2023-03-24T08:40:40;94763.44;;;11.81;95.86
12785;BME280;6456;42.680;23.260;2023-03-24T08:43:13;94765.69;;;12.02;98.55
12785;BME280;6456;42.680;23.260;2023-03-24T08:45:40;94768.50;;;12.07;96.49
12785;BME280;6456;42.680;23.260;2023-03-24T08:48:09;94681.78;;;11.49;96.01
12785;BME280;6456;42.680;23.260;2023-03-24T08:50:38;94681.50;;;11.57;95.66
12785;BME280;6456;42.680;23.260;2023-03-24T08:53:07;94745.78;;;12.24;95.49
12785;BME280;6456;42.680;23.260;2023-03-24T08:55:34;94756.97;;;12.38;92.83
12785;BME280;6456;42.680;23.260;2023-03-24T08:58:02;94740.81;;;12.34;91.99
12785;BME280;6456;42.680;23.260;2023-03-24T09:00:29;94728.03;;;12.31;90.79
12785;BME280;6456;42.680;23.260;2023-03-24T09:02:56;94724.22;;;12.45;90.61
12785;BME280;6456;42.680;23.260;2023-03-24T09:05:26;94742.25;;;12.66;89.62
12785;BME280;6456;42.680;23.260;2023-03-24T09:07:53;94673.59;;;12.37;90.83
12785;BME280;6456;42.680;23.260;2023-03-24T09:10:20;94674.22;;;12.50;91.40
12785;BME280;6456;42.680;23.260;2023-03-24T09:12:48;94677.13;;;12.60;91.18
12785;BME280;6456;42.680;23.260;2023-03-24T09:15:15;94727.78;;;13.17;91.35
12785;BME280;6456;42.680;23.260;2023-03-24T09:17:42;94722.13;;;13.13;86.55
12785;BME280;6456;42.680;23.260;2023-03-24T09:20:12;94726.09;;;13.22;86.09
12785;BME280;6456;42.680;23.260;2023-03-24T09:22:43;94677.38;;;13.00;85.48
12785;BME280;6456;42.680;23.260;2023-03-24T09:25:12;94721.38;;;13.36;86.85
12785;BME280;6456;42.680;23.260;2023-03-24T09:27:39;94701.50;;;13.33;86.02
12785;BME280;6456;42.680;23.260;2023-03-24T09:30:08;94623.41;;;12.96;84.65
12785;BME280;6456;42.680;23.260;2023-03-24T09:32:35;94709.84;;;13.60;82.43
12785;BME280;6456;42.680;23.260;2023-03-24T09:35:02;94672.47;;;13.45;82.87
12785;BME280;6456;42.680;23.260;2023-03-24T09:37:30;94633.16;;;13.37;85.74
12785;BME280;6456;42.680;23.260;2023-03-24T09:39:58;94702.13;;;13.93;85.01
12785;BME280;6456;42.680;23.260;2023-03-24T09:42:29;94696.50;;;13.90;82.74
12785;BME280;6456;42.680;23.260;2023-03-24T09:45:02;94632.91;;;13.73;81.66
12785;BME280;6456;42.680;23.260;2023-03-24T09:47:32;94646.25;;;13.90;81.40
12785;BME280;6456;42.680;23.260;2023-03-24T09:50:06;94590.16;;;13.65;79.92
12785;BME280;6456;42.680;23.260;2023-03-24T09:52:36;94676.09;;;14.37;78.22
12785;BME280;6456;42.680;23.260;2023-03-24T09:55:10;94677.72;;;14.38;77.26
12785;BME280;6456;42.680;23.260;2023-03-24T09:57:42;94678.13;;;14.58;77.79
12785;BME280;6456;42.680;23.260;2023-03-24T10:00:19;94641.31;;;14.45;78.39
12785;BME280;6456;42.680;23.260;2023-03-24T10:02:46;94664.38;;;14.72;77.74
12785;BME280;6456;42.680;23.260;2023-03-24T10:05:15;94667.31;;;14.88;79.29
12785;BME280;6456;42.680;23.260;2023-03-24T10:07:46;94668.56;;;14.85;76.25
12785;BME280;6456;42.680;23.260;2023-03-24T10:10:24;94665.53;;;14.93;75.81
12785;BME280;6456;42.680;23.260;2023-03-24T10:12:57;94658.53;;;15.15;75.10
12785;BME280;6456;42.680;23.260;2023-03-24T10:15:29;94644.19;;;15.16;77.94
12785;BME280;6456;42.680;23.260;2023-03-24T10:18:01;94645.59;;;15.35;77.15
12785;BME280;6456;42.680;23.260;2023-03-24T10:20:33;94646.78;;;15.45;72.96
12785;BME280;6456;42.680;23.260;2023-03-24T10:26:02;94640.00;;;15.65;71.04
12785;BME280;6456;42.680;23.260;2023-03-24T10:28:35;94637.16;;;15.72;71.43
12785;BME280;6456;42.680;23.260;2023-03-24T10:31:08;94637.72;;;15.74;68.43
12785;BME280;6456;42.680;23.260;2023-03-24T10:33:39;94634.41;;;15.83;67.40
12785;BME280;6456;42.680;23.260;2023-03-24T10:36:09;94601.63;;;15.73;68.86
12785;BME280;6456;42.680;23.260;2023-03-24T10:38:37;94632.28;;;16.02;66.39
12785;BME280;6456;42.680;23.260;2023-03-24T10:41:05;94621.34;;;15.98;65.58
12785;BME280;6456;42.680;23.260;2023-03-24T10:43:33;94628.47;;;16.15;64.87
12785;BME280;6456;42.680;23.260;2023-03-24T10:46:00;94623.22;;;16.20;62.97
12785;BME280;6456;42.680;23.260;2023-03-24T10:48:34;94618.34;;;16.33;64.99
12785;BME280;6456;42.680;23.260;2023-03-24T10:51:01;94626.19;;;16.45;63.76
12785;BME280;6456;42.680;23.260;2023-03-24T10:53:31;94616.41;;;16.50;63.05
12785;BME280;6456;42.680;23.260;2023-03-24T10:55:59;94548.88;;;16.20;62.16
12785;BME280;6456;42.680;23.260;2023-03-24T10:58:34;94600.09;;;16.63;62.79
12785;BME280;6456;42.680;23.260;2023-03-24T11:01:02;94589.47;;;16.63;61.14
12785;BME280;6456;42.680;23.260;2023-03-24T11:03:35;94592.22;;;16.74;59.14
12785;BME280;6456;42.680;23.260;2023-03-24T11:06:04;94609.41;;;16.88;56.90
12785;BME280;6456;42.680;23.260;2023-03-24T11:08:33;94605.75;;;16.99;56.94
12785;BME280;6456;42.680;23.260;2023-03-24T11:11:26;94604.19;;;16.98;55.75
12785;BME280;6456;42.680;23.260;2023-03-24T11:13:57;94602.69;;;17.12;56.24
12785;BME280;6456;42.680;23.260;2023-03-24T11:16:28;94567.56;;;17.05;59.83
12785;BME280;6456;42.680;23.260;2023-03-24T11:18:57;94548.22;;;16.83;54.51
12785;BME280;6456;42.680;23.260;2023-03-24T11:21:26;94582.00;;;17.19;53.20
12785;BME280;6456;42.680;23.260;2023-03-24T11:23:56;94583.25;;;17.38;53.87
12785;BME280;6456;42.680;23.260;2023-03-24T11:26:29;94581.69;;;17.47;53.28
12785;BME280;6456;42.680;23.260;2023-03-24T11:29:00;94580.41;;;17.50;52.22
12785;BME280;6456;42.680;23.260;2023-03-24T11:31:30;94570.75;;;17.44;53.91
12785;BME280;6456;42.680;23.260;2023-03-24T11:34:01;94542.00;;;17.36;52.85
12785;BME280;6456;42.680;23.260;2023-03-24T11:36:39;94553.59;;;17.56;51.28
12785;BME280;6456;42.680;23.260;2023-03-24T11:39:10;94549.88;;;17.57;50.06
12785;BME280;6456;42.680;23.260;2023-03-24T11:41:41;94557.97;;;17.77;50.44
12785;BME280;6456;42.680;23.260;2023-03-24T11:44:20;94481.91;;;17.40;50.86
12785;BME280;6456;42.680;23.260;2023-03-24T11:46:50;94544.69;;;17.82;51.16
12785;BME280;6456;42.680;23.260;2023-03-24T11:49:21;94533.16;;;17.67;54.44
12785;BME280;6456;42.680;23.260;2023-03-24T11:51:53;94539.66;;;17.86;52.50
12785;BME280;6456;42.680;23.260;2023-03-24T11:54:23;94534.06;;;17.87;52.72
12785;BME280;6456;42.680;23.260;2023-03-24T11:56:52;94532.50;;;17.97;51.83
12785;BME280;6456;42.680;23.260;2023-03-24T11:59:36;94532.03;;;18.10;50.09
12785;BME280;6456;42.680;23.260;2023-03-24T12:02:19;94527.03;;;18.23;51.78
12785;BME280;6456;42.680;23.260;2023-03-24T12:04:58;94518.75;;;18.20;49.40
12785;BME280;6456;42.680;23.260;2023-03-24T12:07:58;94532.44;;;18.43;52.32
12785;BME280;6456;42.680;23.260;2023-03-24T12:10:54;94520.50;;;18.56;49.27
12785;BME280;6456;42.680;23.260;2023-03-24T12:13:32;94526.63;;;18.77;51.00
12785;BME280;6456;42.680;23.260;2023-03-24T12:16:10;94510.91;;;18.80;53.00
12785;BME280;6456;42.680;23.260;2023-03-24T12:18:47;94514.91;;;18.73;47.59
12785;BME280;6456;42.680;23.260;2023-03-24T12:21:22;94497.28;;;18.51;49.58
12785;BME280;6456;42.680;23.260;2023-03-24T12:23:57;94501.28;;;18.54;48.48
12785;BME280;6456;42.680;23.260;2023-03-24T12:26:27;94508.78;;;18.67;49.32
12785;BME280;6456;42.680;23.260;2023-03-24T12:28:57;94484.53;;;18.64;48.76
12785;BME280;6456;42.680;23.260;2023-03-24T12:31:44;94475.22;;;18.71;48.45
12785;BME280;6456;42.680;23.260;2023-03-24T12:34:43;94471.47;;;18.82;47.93
12785;BME280;6456;42.680;23.260;2023-03-24T12:37:17;94449.34;;;18.77;46.14
12785;BME280;6456;42.680;23.260;2023-03-24T12:39:55;94468.25;;;19.00;49.63
12785;BME280;6456;42.680;23.260;2023-03-24T12:42:33;94435.22;;;18.91;46.53
12785;BME280;6456;42.680;23.260;2023-03-24T12:45:26;94469.28;;;19.35;45.06
12785;BME280;6456;42.680;23.260;2023-03-24T12:48:10;94443.16;;;19.37;43.33
12785;BME280;6456;42.680;23.260;2023-03-24T12:50:49;94442.06;;;19.53;40.93
12785;BME280;6456;42.680;23.260;2023-03-24T12:53:39;94442.31;;;19.61;39.98
12785;BME280;6456;42.680;23.260;2023-03-24T12:56:15;94374.41;;;19.08;36.17
12785;BME280;6456;42.680;23.260;2023-03-24T12:58:45;94430.34;;;19.49;36.26
12785;BME280;6456;42.680;23.260;2023-03-24T13:01:20;94449.44;;;19.76;35.71
12785;BME280;6456;42.680;23.260;2023-03-24T13:03:53;94448.38;;;19.72;34.49
12785;BME280;6456;42.680;23.260;2023-03-24T13:06:24;94447.00;;;19.84;33.86
12785;BME280;6456;42.680;23.260;2023-03-24T13:09:03;94430.41;;;19.93;33.58
12785;BME280;6456;42.680;23.260;2023-03-24T13:11:36;94414.09;;;19.94;33.35
12785;BME280;6456;42.680;23.260;2023-03-24T13:14:12;94431.38;;;20.12;33.74
12785;BME280;6456;42.680;23.260;2023-03-24T13:16:41;94411.34;;;20.09;33.26
12785;BME280;6456;42.680;23.260;2023-03-24T13:19:17;94421.44;;;20.22;32.95
12785;BME280;6456;42.680;23.260;2023-03-24T13:21:48;94421.97;;;20.24;33.50
12785;BME280;6456;42.680;23.260;2023-03-24T13:24:17;94400.13;;;20.12;33.67